createdAt,value
2022-08-25T00:01:53.754Z,11.40
2022-08-25T00:04:21.401Z,10.65
2022-08-25T00:06:49.456Z,10.70
2022-08-25T00:09:18.690Z,11.48
2022-08-25T00:11:46.520Z,11.57
2022-08-25T00:14:17.840Z,11.87
2022-08-25T00:16:44.526Z,11.23
2022-08-25T00:19:15.415Z,11.32
2022-08-25T00:21:42.760Z,12.25
2022-08-25T00:24:11.176Z,12.90
2022-08-25T00:26:43.615Z,12.87
2022-08-25T00:29:11.451Z,11.98
2022-08-25T00:31:39.236Z,11.73
2022-08-25T00:34:12.925Z,11.38
2022-08-25T00:36:39.638Z,11.98
2022-08-25T00:39:08.463Z,11.47
2022-08-25T00:41:36.414Z,11.50
2022-08-25T00:44:06.508Z,12.10
2022-08-25T00:46:44.286Z,13.13
2022-08-25T00:49:25.124Z,15.13
2022-08-25T00:52:00.125Z,13.33
2022-08-25T00:54:35.283Z,13.73
2022-08-25T00:57:04.598Z,13.00
2022-08-25T00:59:31.398Z,12.27
2022-08-25T01:05:14.894Z,19.13
2022-08-25T01:07:43.602Z,24.27
2022-08-25T01:10:13.502Z,25.88
2022-08-25T01:12:41.270Z,18.35
2022-08-25T01:15:10.634Z,22.63
2022-08-25T01:17:46.050Z,18.70
2022-08-25T01:20:13.968Z,18.58
2022-08-25T01:22:40.655Z,18.88
2022-08-25T01:25:39.155Z,13.60
2022-08-25T01:28:06.286Z,13.77
2022-08-25T01:30:32.910Z,12.10
2022-08-25T01:32:59.446Z,11.93
2022-08-25T01:35:25.893Z,12.52
2022-08-25T01:37:52.411Z,13.43
2022-08-25T01:40:19.013Z,12.70
2022-08-25T01:43:02.450Z,12.13
2022-08-25T01:45:29.666Z,12.77
2022-08-25T01:47:56.835Z,15.18
2022-08-25T01:50:23.637Z,13.43
2022-08-25T01:53:00.723Z,13.98
2022-08-25T01:55:27.207Z,13.83
2022-08-25T01:57:53.692Z,13.80
2022-08-25T02:00:21.423Z,14.02
2022-08-25T02:02:52.233Z,14.13
2022-08-25T02:05:23.589Z,12.95
2022-08-25T02:07:50.287Z,13.83
2022-08-25T02:10:16.814Z,13.68
2022-08-25T02:12:43.317Z,11.50
2022-08-25T02:15:10.280Z,12.48
2022-08-25T02:17:37.167Z,12.77
2022-08-25T02:20:08.719Z,11.70
2022-08-25T02:22:35.274Z,17.52
2022-08-25T02:25:01.783Z,13.25
2022-08-25T02:27:28.412Z,12.20
2022-08-25T02:29:54.853Z,14.60
2022-08-25T02:32:21.336Z,12.90
2022-08-25T02:34:48.247Z,13.57
2022-08-25T02:37:14.742Z,13.73
2022-08-25T02:39:41.259Z,14.70
2022-08-25T02:42:07.848Z,13.27
2022-08-25T02:44:34.299Z,13.27
2022-08-25T02:47:00.744Z,13.63
2022-08-25T02:49:27.883Z,12.63
2022-08-25T02:51:54.694Z,11.90
2022-08-25T02:54:23.210Z,12.20
2022-08-25T02:56:49.894Z,11.97
2022-08-25T02:59:18.057Z,13.43
2022-08-25T03:01:44.663Z,12.10
2022-08-25T03:04:11.875Z,13.10
2022-08-25T03:06:38.637Z,12.00
2022-08-25T03:09:05.501Z,11.50
2022-08-25T03:11:32.619Z,14.68
2022-08-25T03:13:59.075Z,14.20
2022-08-25T03:16:28.161Z,16.73
2022-08-25T03:18:55.183Z,16.42
2022-08-25T03:21:22.487Z,15.03
2022-08-25T03:23:48.990Z,16.08
2022-08-25T03:26:34.140Z,19.13
2022-08-25T03:29:05.126Z,14.38
2022-08-25T03:31:33.459Z,13.77
2022-08-25T03:34:00.452Z,13.63
2022-08-25T03:36:27.699Z,13.40
2022-08-25T03:38:54.811Z,13.75
2022-08-25T03:41:29.109Z,12.98
2022-08-25T03:43:56.565Z,15.00
2022-08-25T03:46:26.576Z,14.27
2022-08-25T03:48:53.900Z,15.07
2022-08-25T03:51:23.078Z,14.32
2022-08-25T03:53:50.059Z,15.05
2022-08-25T03:56:17.115Z,17.02
2022-08-25T03:58:43.791Z,18.93
2022-08-25T04:01:10.463Z,15.80
2022-08-25T04:03:37.073Z,17.45
2022-08-25T04:06:05.990Z,16.83
2022-08-25T04:08:32.783Z,16.73
2022-08-25T04:10:59.815Z,17.40
2022-08-25T04:13:26.480Z,16.27
2022-08-25T04:15:52.948Z,15.40
2022-08-25T04:18:19.514Z,15.63
2022-08-25T04:20:47.551Z,16.70
2022-08-25T04:23:14.132Z,14.23
2022-08-25T04:25:44.198Z,14.50
2022-08-25T04:28:12.780Z,15.13
2022-08-25T04:30:42.731Z,14.27
2022-08-25T04:33:09.219Z,14.75
2022-08-25T04:35:35.822Z,15.47
2022-08-25T04:38:02.811Z,15.10
2022-08-25T04:40:29.497Z,14.25
2022-08-25T04:42:56.112Z,13.65
2022-08-25T04:45:22.654Z,13.85
2022-08-25T04:47:53.013Z,14.20
2022-08-25T04:50:21.379Z,13.77
2022-08-25T04:52:47.988Z,14.27
2022-08-25T04:55:14.496Z,14.63
2022-08-25T04:57:41.006Z,13.85
2022-08-25T05:00:08.227Z,12.30
2022-08-25T05:02:34.769Z,13.55
2022-08-25T05:05:03.513Z,13.55
2022-08-25T05:07:30.216Z,14.25
2022-08-25T05:09:56.667Z,14.70
2022-08-25T05:12:23.152Z,14.83
2022-08-25T05:14:53.510Z,14.90
2022-08-25T05:17:20.170Z,14.45
2022-08-25T05:19:49.035Z,14.40
2022-08-25T05:22:15.498Z,14.32
2022-08-25T05:24:42.092Z,14.07
2022-08-25T05:27:08.536Z,15.65
2022-08-25T05:29:35.014Z,16.42
2022-08-25T05:32:01.502Z,17.20
2022-08-25T05:34:28.121Z,16.40
2022-08-25T05:36:54.648Z,14.30
2022-08-25T05:39:21.203Z,16.38
2022-08-25T05:41:47.662Z,15.23
2022-08-25T05:44:16.948Z,16.10
2022-08-25T05:46:47.279Z,16.45
2022-08-25T05:49:13.737Z,14.97
2022-08-25T05:51:40.278Z,13.05
2022-08-25T05:54:06.763Z,15.80
2022-08-25T05:56:33.250Z,16.98
2022-08-25T05:58:59.783Z,15.65
2022-08-25T06:01:47.614Z,16.97
2022-08-25T06:04:17.694Z,14.45
2022-08-25T06:06:44.146Z,16.17
2022-08-25T06:09:10.923Z,15.60
2022-08-25T06:11:39.971Z,14.77
2022-08-25T06:14:08.767Z,14.93
2022-08-25T06:16:35.450Z,14.52
2022-08-25T06:19:01.947Z,16.23
2022-08-25T06:21:29.070Z,15.82
2022-08-25T06:23:55.830Z,15.50
2022-08-25T06:26:23.452Z,15.57
2022-08-25T06:28:50.973Z,14.77
2022-08-25T06:31:19.001Z,14.70
2022-08-25T06:33:46.180Z,14.18
2022-08-25T06:36:12.824Z,15.80
2022-08-25T06:38:39.350Z,14.40
2022-08-25T06:41:07.583Z,13.52
2022-08-25T06:43:35.067Z,14.57
2022-08-25T06:46:17.137Z,14.10
2022-08-25T06:48:43.923Z,14.25
2022-08-25T06:51:14.439Z,14.23
2022-08-25T06:53:41.635Z,12.05
2022-08-25T06:56:08.570Z,12.57
2022-08-25T06:58:35.833Z,13.10
2022-08-25T07:01:14.826Z,11.63
2022-08-25T07:03:43.081Z,9.83
2022-08-25T07:06:09.851Z,13.32
2022-08-25T07:08:37.203Z,10.43
2022-08-25T07:11:08.051Z,13.45
2022-08-25T07:13:43.050Z,10.95
2022-08-25T07:16:11.363Z,9.63
2022-08-25T07:18:38.410Z,10.82
2022-08-25T07:21:05.086Z,10.45
2022-08-25T07:23:35.595Z,11.93
2022-08-25T07:29:02.123Z,9.73
2022-08-25T07:31:30.177Z,12.70
2022-08-25T07:34:17.907Z,11.68
2022-08-25T07:36:44.556Z,9.77
2022-08-25T07:39:11.567Z,10.80
2022-08-25T07:41:40.802Z,10.87
2022-08-25T07:44:10.125Z,11.18
2022-08-25T07:46:37.334Z,11.05
2022-08-25T07:49:04.099Z,11.70
2022-08-25T07:51:39.947Z,11.02
2022-08-25T07:54:33.790Z,12.63
2022-08-25T07:57:01.396Z,10.38
2022-08-25T07:59:28.008Z,10.75
2022-08-25T08:01:54.554Z,11.80
2022-08-25T08:04:21.107Z,11.73
2022-08-25T08:06:47.635Z,13.33
2022-08-25T08:09:14.322Z,16.30
2022-08-25T08:11:53.809Z,11.63
2022-08-25T08:14:20.808Z,10.98
2022-08-25T08:16:47.294Z,13.02
2022-08-25T08:19:13.826Z,13.40
2022-08-25T08:21:40.759Z,12.38
2022-08-25T08:24:14.907Z,12.25
2022-08-25T08:26:59.118Z,11.55
2022-08-25T08:29:26.881Z,13.30
2022-08-25T08:31:53.415Z,12.40
2022-08-25T08:34:25.117Z,12.82
2022-08-25T08:36:52.407Z,11.52
2022-08-25T08:39:18.862Z,12.70
2022-08-25T08:42:11.377Z,13.20
2022-08-25T08:44:44.767Z,12.60
2022-08-25T08:47:27.875Z,11.20
2022-08-25T08:50:28.118Z,12.73
2022-08-25T08:53:16.603Z,11.43
2022-08-25T08:55:51.889Z,10.65
2022-08-25T08:58:33.873Z,11.77
2022-08-25T09:01:01.920Z,12.75
2022-08-25T09:03:32.022Z,11.85
2022-08-25T09:06:02.748Z,11.40
2022-08-25T09:08:30.707Z,10.88
2022-08-25T09:11:10.184Z,11.33
2022-08-25T09:13:57.988Z,13.98
2022-08-25T09:16:55.626Z,11.38
2022-08-25T09:19:37.514Z,12.45
2022-08-25T09:22:33.382Z,12.05
2022-08-25T09:25:53.124Z,12.50
2022-08-25T09:28:40.706Z,13.50
2022-08-25T09:31:25.339Z,12.40
2022-08-25T09:33:57.164Z,11.95
2022-08-25T09:36:24.700Z,15.80
2022-08-25T09:38:51.762Z,11.37
2022-08-25T09:41:40.163Z,11.88
2022-08-25T09:44:33.030Z,11.35
2022-08-25T09:47:34.835Z,10.85
2022-08-25T09:50:05.524Z,11.90
2022-08-25T09:52:37.431Z,12.00
2022-08-25T09:55:15.965Z,11.05
2022-08-25T09:57:56.927Z,11.68
2022-08-25T10:00:34.924Z,11.48
2022-08-25T10:03:24.746Z,10.98
2022-08-25T10:06:12.983Z,10.70
2022-08-25T10:08:56.053Z,13.77
2022-08-25T10:11:42.864Z,10.57
2022-08-25T10:21:13.582Z,11.60
2022-08-25T10:24:06.070Z,11.05
2022-08-25T10:27:02.990Z,11.10
2022-08-25T10:30:04.651Z,11.60
2022-08-25T10:33:05.745Z,12.18
2022-08-25T10:36:02.917Z,12.70
2022-08-25T10:38:36.349Z,13.38
2022-08-25T10:41:30.036Z,10.60
2022-08-25T12:21:08.606Z,16.27
2022-08-25T12:23:44.826Z,17.90
2022-08-25T12:26:34.005Z,17.55
2022-08-25T12:29:04.129Z,19.48
2022-08-25T12:32:29.580Z,15.10
2022-08-25T12:35:02.654Z,16.85
2022-08-25T12:37:33.218Z,16.70
2022-08-25T12:40:05.173Z,16.20
2022-08-25T13:55:58.840Z,15.95
2022-08-25T13:58:32.478Z,13.53
2022-08-25T14:01:32.264Z,18.75
2022-08-25T14:04:24.636Z,18.02
2022-08-25T14:07:20.876Z,18.58
2022-08-25T14:10:01.566Z,14.73
2022-08-25T14:12:45.510Z,17.03
2022-08-25T14:15:29.544Z,14.93
2022-08-25T14:18:28.217Z,16.65
2022-08-25T14:20:57.485Z,17.73
2022-08-25T14:23:27.478Z,15.40
2022-08-25T14:25:56.683Z,14.47
2022-08-25T14:28:26.397Z,12.88
2022-08-25T14:31:30.041Z,17.30
2022-08-25T14:34:02.456Z,18.25
2022-08-25T14:36:30.476Z,14.52
2022-08-25T14:38:57.502Z,14.37
2022-08-25T14:41:26.543Z,15.43
2022-08-25T14:43:53.634Z,20.15
2022-08-25T14:46:24.649Z,18.23
2022-08-25T14:49:05.049Z,16.13
2022-08-25T14:51:33.223Z,14.60
2022-08-25T14:54:05.394Z,12.82
2022-08-25T14:56:33.355Z,18.17
2022-08-25T14:59:00.816Z,16.95
2022-08-25T15:01:30.047Z,15.90
2022-08-25T15:04:08.056Z,14.93
2022-08-25T15:06:36.960Z,18.42
2022-08-25T15:09:10.885Z,17.00
2022-08-25T15:11:46.986Z,13.60
2022-08-25T15:14:28.781Z,20.02
2022-08-25T15:16:59.803Z,17.97
2022-08-25T15:19:29.503Z,18.42
2022-08-25T15:21:57.935Z,15.50
2022-08-25T15:24:27.439Z,19.13
2022-08-25T15:26:58.209Z,15.57
2022-08-25T15:29:27.385Z,15.53
2022-08-25T15:31:54.005Z,20.52
2022-08-25T15:34:20.607Z,17.30
2022-08-25T15:36:48.092Z,17.80
2022-08-25T15:39:15.187Z,20.70
2022-08-25T15:41:46.032Z,18.93
2022-08-25T15:44:16.112Z,17.63
2022-08-25T15:46:47.191Z,19.58
2022-08-25T15:49:20.750Z,17.95
2022-08-25T15:51:54.541Z,16.10
2022-08-25T15:54:22.536Z,19.93
2022-08-25T15:56:49.150Z,14.65
2022-08-25T15:59:16.021Z,17.65
2022-08-25T16:01:44.308Z,18.05
2022-08-25T16:04:15.581Z,18.88
2022-08-25T16:06:44.489Z,17.30
2022-08-25T16:09:11.824Z,17.15
2022-08-25T16:11:38.963Z,16.75
2022-08-25T16:14:06.209Z,23.95
2022-08-25T16:16:33.483Z,18.65
2022-08-25T16:19:01.527Z,21.63
2022-08-25T16:21:33.462Z,17.95
2022-08-25T16:24:07.526Z,16.88
2022-08-25T16:26:48.567Z,16.35
2022-08-25T16:29:15.860Z,20.73
2022-08-25T16:31:43.397Z,20.43
2022-08-25T16:34:10.099Z,18.02
2022-08-25T16:36:38.992Z,20.23
2022-08-25T16:39:09.787Z,17.98
2022-08-25T16:41:37.355Z,18.52
2022-08-25T16:44:11.270Z,15.67
2022-08-25T16:46:38.535Z,17.58
2022-08-25T16:49:07.884Z,15.80
2022-08-25T16:51:34.328Z,17.45
2022-08-25T16:54:22.143Z,16.08
2022-08-25T16:56:49.462Z,20.07
2022-08-25T16:59:22.159Z,16.40
2022-08-25T17:01:51.121Z,15.38
2022-08-25T17:04:18.028Z,19.75
2022-08-25T17:06:51.895Z,15.48
2022-08-25T17:09:23.929Z,16.77
2022-08-25T17:11:54.198Z,17.48
2022-08-25T17:14:21.024Z,17.42
2022-08-25T17:16:48.603Z,17.80
2022-08-25T17:19:17.458Z,18.80
2022-08-25T17:21:49.958Z,14.80
2022-08-25T17:24:17.157Z,19.40
2022-08-25T17:27:03.975Z,15.00
2022-08-25T17:29:30.495Z,17.23
2022-08-25T17:31:57.584Z,18.33
2022-08-25T17:34:24.439Z,15.07
2022-08-25T17:36:51.639Z,14.73
2022-08-25T17:39:19.680Z,14.15
2022-08-25T17:41:49.441Z,19.13
2022-08-25T17:44:16.528Z,21.23
2022-08-25T17:46:47.444Z,16.03
2022-08-25T17:49:15.019Z,18.58
2022-08-25T17:51:42.210Z,17.35
2022-08-25T17:54:08.807Z,16.48
2022-08-25T17:56:35.248Z,17.77
2022-08-25T17:59:02.341Z,20.37
2022-08-25T18:01:31.418Z,18.00
2022-08-25T18:03:59.511Z,17.45
2022-08-25T18:06:31.507Z,17.25
2022-08-25T18:09:03.110Z,18.30
2022-08-25T18:11:33.315Z,17.23
2022-08-25T18:14:03.522Z,19.30
2022-08-25T18:16:32.223Z,18.73
2022-08-25T18:19:00.679Z,17.15
2022-08-25T18:21:30.607Z,14.27
2022-08-25T18:23:57.523Z,19.20
2022-08-25T18:26:25.440Z,15.68
2022-08-25T18:28:52.146Z,15.18
2022-08-25T18:31:19.939Z,16.10
2022-08-25T18:33:46.854Z,16.98
2022-08-25T18:36:13.848Z,17.07
2022-08-25T18:38:59.975Z,17.60
2022-08-25T18:41:33.304Z,16.95
2022-08-25T18:43:59.823Z,19.90
2022-08-25T18:46:26.429Z,17.40
2022-08-25T18:48:54.878Z,19.60
2022-08-25T18:51:22.987Z,17.17
2022-08-25T18:54:00.808Z,20.02
2022-08-25T18:56:27.581Z,15.90
2022-08-25T18:59:04.289Z,18.02
2022-08-25T19:01:31.348Z,17.97
2022-08-25T19:03:57.997Z,15.15
2022-08-25T19:06:24.521Z,17.73
2022-08-25T19:08:51.129Z,17.20
2022-08-25T19:11:22.043Z,14.63
2022-08-25T19:13:49.071Z,15.40
2022-08-25T19:16:20.381Z,20.75
2022-08-25T19:18:48.686Z,15.70
2022-08-25T19:21:15.359Z,13.98
2022-08-25T19:23:45.134Z,15.57
2022-08-25T19:26:17.020Z,16.50
2022-08-25T19:28:45.911Z,18.20
2022-08-25T19:31:18.375Z,15.57
2022-08-25T19:33:46.140Z,15.23
2022-08-25T19:36:13.103Z,19.98
2022-08-25T19:38:39.976Z,18.07
2022-08-25T19:41:10.413Z,19.67
2022-08-25T19:43:55.242Z,15.75
2022-08-25T19:46:24.420Z,17.23
2022-08-25T19:48:50.974Z,16.98
2022-08-25T19:51:19.307Z,17.93
2022-08-25T19:53:52.313Z,16.58
2022-08-25T19:56:21.326Z,16.52
2022-08-25T19:58:47.842Z,17.30
2022-08-25T20:01:18.156Z,18.40
2022-08-25T20:03:45.118Z,18.77
2022-08-25T20:06:12.064Z,16.52
2022-08-25T20:08:42.501Z,18.38
2022-08-25T20:11:08.947Z,19.00
2022-08-25T20:13:35.462Z,15.63
2022-08-25T20:16:02.449Z,15.20
2022-08-25T20:18:28.938Z,18.20
2022-08-25T20:20:56.039Z,15.05
2022-08-25T20:23:41.903Z,20.27
2022-08-25T20:26:09.202Z,18.65
2022-08-25T20:28:35.755Z,18.97
2022-08-25T20:31:02.249Z,18.65
2022-08-25T20:33:28.998Z,17.95
2022-08-25T20:35:55.879Z,19.27
2022-08-25T20:38:22.667Z,18.67
2022-08-25T20:40:49.443Z,17.30
2022-08-25T20:43:15.988Z,18.15
2022-08-25T20:45:42.464Z,16.48
2022-08-25T20:48:09.516Z,14.15
2022-08-25T20:50:38.684Z,18.42
2022-08-25T20:53:10.100Z,16.87
2022-08-25T20:55:42.468Z,17.08
2022-08-25T20:58:10.140Z,17.77
2022-08-25T21:00:36.607Z,21.88
2022-08-25T21:03:03.118Z,17.85
2022-08-25T21:05:29.575Z,20.33
2022-08-25T21:07:56.078Z,19.85
2022-08-25T21:10:23.473Z,19.30
2022-08-25T21:12:53.360Z,20.60
2022-08-25T21:15:20.647Z,18.55
2022-08-25T21:17:53.133Z,20.80
2022-08-25T21:20:23.666Z,21.27
2022-08-25T21:22:50.820Z,21.38
2022-08-25T21:25:18.811Z,21.42
2022-08-25T21:27:45.616Z,18.90
2022-08-25T21:30:14.815Z,23.30
2022-08-25T21:32:53.047Z,24.13
2022-08-25T21:35:20.819Z,22.17
2022-08-25T21:37:49.270Z,21.65
2022-08-25T21:40:20.566Z,23.27
2022-08-25T21:42:47.119Z,21.40
2022-08-25T21:45:13.862Z,21.00
2022-08-25T21:47:42.546Z,23.80
2022-08-25T21:50:11.427Z,22.13
2022-08-25T21:52:38.004Z,21.50
2022-08-25T21:55:08.036Z,22.17
2022-08-25T21:57:42.923Z,21.23
2022-08-25T22:00:14.963Z,23.92
2022-08-25T22:02:43.881Z,28.55
2022-08-25T22:05:11.546Z,23.95
2022-08-25T22:07:41.738Z,21.10
2022-08-25T22:10:16.617Z,19.17
2022-08-25T22:12:45.662Z,17.83
2022-08-25T22:15:13.899Z,20.55
2022-08-25T22:17:40.607Z,17.92
2022-08-25T22:20:08.450Z,19.03
2022-08-25T22:22:35.690Z,19.15
2022-08-25T22:25:02.532Z,18.83
2022-08-25T22:27:30.363Z,20.83
2022-08-25T22:29:57.291Z,17.05
2022-08-25T22:32:23.855Z,21.60
2022-08-25T22:34:50.430Z,18.77
2022-08-25T22:37:17.923Z,21.70
2022-08-25T22:39:45.495Z,20.50
2022-08-25T22:42:12.533Z,19.50
2022-08-25T22:44:39.882Z,24.17
2022-08-25T22:47:07.502Z,20.48
2022-08-25T22:49:35.477Z,23.83
2022-08-25T22:52:02.155Z,23.80
2022-08-25T22:54:28.623Z,23.42
2022-08-25T22:56:56.419Z,24.67
2022-08-25T22:59:22.911Z,20.58
2022-08-25T23:01:52.379Z,24.23
2022-08-25T23:04:19.227Z,20.63
2022-08-25T23:06:46.191Z,21.70
2022-08-25T23:09:13.982Z,22.97
2022-08-25T23:11:40.722Z,24.35
2022-08-25T23:14:10.991Z,19.55
2022-08-25T23:16:39.843Z,27.85
2022-08-25T23:19:09.789Z,23.17
2022-08-25T23:21:56.861Z,21.17
2022-08-25T23:24:29.314Z,21.73
2022-08-25T23:26:57.942Z,23.42
2022-08-25T23:29:24.678Z,22.20
2022-08-25T23:31:51.949Z,23.30
2022-08-25T23:34:20.262Z,20.53
2022-08-25T23:36:46.688Z,22.85
2022-08-25T23:39:13.208Z,20.73
2022-08-25T23:41:40.110Z,22.00
2022-08-25T23:44:06.767Z,23.52
2022-08-25T23:46:35.879Z,19.87
2022-08-25T23:49:04.600Z,20.77
2022-08-25T23:51:33.808Z,21.05
2022-08-25T23:54:05.954Z,22.65
2022-08-25T23:56:36.074Z,22.90
2022-08-25T23:59:04.188Z,25.13
